createdAt,value
2017-09-22T00:00:31.018Z,11.72
2017-09-22T00:01:30.995Z,11.72
2017-09-22T00:02:30.981Z,11.75
2017-09-22T00:03:30.949Z,11.72
2017-09-22T00:04:30.922Z,11.69
2017-09-22T00:05:30.901Z,11.66
2017-09-22T00:06:30.883Z,11.72
2017-09-22T00:07:30.856Z,11.66
2017-09-22T00:08:30.841Z,11.67
2017-09-22T00:09:30.503Z,11.7
2017-09-22T00:10:30.484Z,11.56
2017-09-22T00:11:30.762Z,11.64
2017-09-22T00:12:30.740Z,11.66
2017-09-22T00:13:30.717Z,11.72
2017-09-22T00:14:30.447Z,11.6
2017-09-22T00:15:30.691Z,11.62
2017-09-22T00:16:30.658Z,11.6
2017-09-22T00:17:30.628Z,11.69
2017-09-22T00:18:30.613Z,11.57
2017-09-22T00:19:30.588Z,11.59
2017-09-22T00:20:30.568Z,11.53
2017-09-22T00:21:30.547Z,11.57
2017-09-22T00:22:30.518Z,11.54
2017-09-22T00:23:30.497Z,11.57
2017-09-22T00:24:30.472Z,11.46
2017-09-22T00:25:30.453Z,11.51
2017-09-22T00:26:30.435Z,11.56
2017-09-22T00:27:30.102Z,11.44
2017-09-22T00:28:30.380Z,11.41
2017-09-22T00:29:30.375Z,11.45
2017-09-22T00:30:30.346Z,11.48
2017-09-22T00:31:30.312Z,11.41
2017-09-22T00:32:30.302Z,11.41
2017-09-22T00:33:29.968Z,11.48
2017-09-22T00:34:30.250Z,11.38
2017-09-22T00:35:30.228Z,11.44
2017-09-22T00:36:30.199Z,11.46
2017-09-22T00:37:30.184Z,11.35
2017-09-22T00:38:30.166Z,11.41
2017-09-22T00:39:30.145Z,11.38
2017-09-22T00:40:30.113Z,11.36
2017-09-22T00:41:30.093Z,11.33
2017-09-22T00:42:30.074Z,11.28
2017-09-22T00:43:30.046Z,11.27
2017-09-22T00:44:30.028Z,11.26
2017-09-22T00:45:30.002Z,11.28
2017-09-22T00:46:29.985Z,11.2
2017-09-22T00:47:29.962Z,11.23
2017-09-22T00:48:29.942Z,11.31
2017-09-22T00:49:29.912Z,11.16
2017-09-22T00:50:29.894Z,11.26
2017-09-22T00:51:29.865Z,11.19
2017-09-22T00:52:29.849Z,11.13
2017-09-22T00:53:29.819Z,11.13
2017-09-22T00:54:29.847Z,11.11
2017-09-22T00:55:29.782Z,11.13
2017-09-22T00:56:29.751Z,11.05
2017-09-22T00:57:29.731Z,11.08
2017-09-22T00:58:29.716Z,11.11
2017-09-22T00:59:29.691Z,11.09
2017-09-22T01:00:29.360Z,11.11
2017-09-22T01:01:29.333Z,11.17
2017-09-22T01:02:29.620Z,11.05
2017-09-22T01:03:29.594Z,11.01
2017-09-22T01:04:29.573Z,11.08
2017-09-22T01:05:29.554Z,10.99
2017-09-22T01:06:29.526Z,10.95
2017-09-22T01:07:29.503Z,11.01
2017-09-22T01:08:29.478Z,11.02
2017-09-22T01:09:29.456Z,11.08
2017-09-22T01:10:29.432Z,11.03
2017-09-22T01:11:29.416Z,10.91
2017-09-22T01:12:29.387Z,10.95
2017-09-22T01:13:29.366Z,10.95
2017-09-22T01:14:29.346Z,10.95
2017-09-22T01:15:29.327Z,10.9
2017-09-22T01:16:29.296Z,10.94
2017-09-22T01:17:29.281Z,10.99
2017-09-22T01:18:29.249Z,10.9
2017-09-22T01:19:29.228Z,10.88
2017-09-22T01:20:29.209Z,10.87
2017-09-22T01:21:29.192Z,10.86
2017-09-22T01:22:29.183Z,10.84
2017-09-22T01:23:29.141Z,10.78
2017-09-22T01:24:29.165Z,10.86
2017-09-22T01:25:29.094Z,10.84
2017-09-22T01:26:29.068Z,10.83
2017-09-22T01:27:29.047Z,10.86
2017-09-22T01:28:29.027Z,10.81
2017-09-22T01:29:29.013Z,10.73
2017-09-22T01:30:28.978Z,10.76
2017-09-22T01:31:28.967Z,10.75
2017-09-22T01:32:28.936Z,10.66
2017-09-22T01:33:28.907Z,10.8
2017-09-22T01:34:28.892Z,10.69
2017-09-22T01:35:28.861Z,10.73
2017-09-22T01:36:28.841Z,10.68
2017-09-22T01:37:28.516Z,10.63
2017-09-22T01:38:28.796Z,10.68
2017-09-22T01:39:28.772Z,10.75
2017-09-22T01:40:28.759Z,10.75
2017-09-22T01:41:28.729Z,10.62
2017-09-22T01:42:28.702Z,10.63
2017-09-22T01:43:28.690Z,10.65
2017-09-22T01:44:28.667Z,10.62
2017-09-22T01:45:28.630Z,10.65
2017-09-22T01:46:28.621Z,10.63
2017-09-22T01:47:28.283Z,10.68
2017-09-22T01:48:28.575Z,10.62
2017-09-22T01:49:28.545Z,10.49
2017-09-22T01:50:28.578Z,10.63
2017-09-22T01:51:28.504Z,10.49
2017-09-22T01:52:28.476Z,10.58
2017-09-22T01:53:28.518Z,10.63
2017-09-22T01:54:28.438Z,10.62
2017-09-22T01:55:28.408Z,10.55
2017-09-22T01:56:28.378Z,10.66
2017-09-22T01:57:28.367Z,10.51
2017-09-22T01:58:28.338Z,10.51
2017-09-22T01:59:28.007Z,10.49
2017-09-22T02:00:28.298Z,10.55
2017-09-22T02:01:28.275Z,10.54
2017-09-22T02:02:28.248Z,10.52
2017-09-22T02:03:28.229Z,10.46
2017-09-22T02:04:28.209Z,10.47
2017-09-22T02:05:28.176Z,10.49
2017-09-22T02:06:28.157Z,10.55
2017-09-22T02:07:28.142Z,10.47
2017-09-22T02:08:28.125Z,10.47
2017-09-22T02:09:28.087Z,10.39
2017-09-22T02:10:28.070Z,10.51
2017-09-22T02:11:28.043Z,10.46
2017-09-22T02:12:27.715Z,10.49
2017-09-22T02:13:28.014Z,10.58
2017-09-22T02:14:27.976Z,10.49
2017-09-22T02:15:27.955Z,10.52
2017-09-22T02:16:27.937Z,10.46
2017-09-22T02:17:27.906Z,10.47
2017-09-22T02:18:27.893Z,10.39
2017-09-22T02:19:27.859Z,10.46
2017-09-22T02:20:27.840Z,10.51
2017-09-22T02:21:27.821Z,10.38
2017-09-22T02:22:27.787Z,10.39
2017-09-22T02:23:27.783Z,10.42
2017-09-22T02:24:27.755Z,10.36
2017-09-22T02:25:27.724Z,10.36
2017-09-22T02:26:27.691Z,10.29
2017-09-22T02:27:27.671Z,10.28
2017-09-22T02:28:27.651Z,10.29
2017-09-22T02:29:27.625Z,10.32
2017-09-22T02:30:27.604Z,10.42
2017-09-22T02:31:27.588Z,10.34
2017-09-22T02:32:27.561Z,10.25
2017-09-22T02:33:27.543Z,10.24
2017-09-22T02:34:27.517Z,10.35
2017-09-22T02:35:27.501Z,10.25
2017-09-22T02:36:27.475Z,10.26
2017-09-22T02:37:27.446Z,10.31
2017-09-22T02:38:27.426Z,10.34
2017-09-22T02:39:27.095Z,10.29
2017-09-22T02:40:27.380Z,10.28
2017-09-22T02:41:27.049Z,10.29
2017-09-22T02:42:27.335Z,10.2
2017-09-22T02:43:26.998Z,10.25
2017-09-22T02:44:27.301Z,10.17
2017-09-22T02:45:27.261Z,10.17
2017-09-22T02:46:26.925Z,10.24
2017-09-22T02:47:27.222Z,10.18
2017-09-22T02:48:27.190Z,10.17
2017-09-22T02:49:26.861Z,10.22
2017-09-22T02:50:26.890Z,10.17
2017-09-22T02:51:27.131Z,10.16
2017-09-22T02:52:27.099Z,10.14
2017-09-22T02:53:27.082Z,10.17
2017-09-22T02:54:27.054Z,10.25
2017-09-22T02:55:27.036Z,10.14
2017-09-22T02:56:27.006Z,10.17
2017-09-22T02:57:26.991Z,10.17
2017-09-22T02:58:26.964Z,10.1
2017-09-22T02:59:26.942Z,10.18
2017-09-22T03:00:26.924Z,10.09
2017-09-22T03:01:26.901Z,10.11
2017-09-22T03:02:26.885Z,10.13
2017-09-22T03:03:26.546Z,10.16
2017-09-22T03:04:26.827Z,10.04
2017-09-22T03:05:26.802Z,10.1
2017-09-22T03:06:26.783Z,10.13
2017-09-22T03:07:26.761Z,10.16
2017-09-22T03:08:26.733Z,10.07
2017-09-22T03:09:26.708Z,10.2
2017-09-22T03:10:26.714Z,10.2
2017-09-22T03:11:26.662Z,10.13
2017-09-22T03:12:26.637Z,10.1
2017-09-22T03:13:26.310Z,10.09
2017-09-22T03:14:26.297Z,10.16
2017-09-22T03:15:26.569Z,10.1
2017-09-22T03:16:26.556Z,10.13
2017-09-22T03:17:26.527Z,10.17
2017-09-22T03:18:26.504Z,10.07
2017-09-22T03:19:26.482Z,10.11
2017-09-22T03:20:26.453Z,10.06
2017-09-22T03:21:26.438Z,10.1
2017-09-22T03:22:26.413Z,10.11
2017-09-22T03:23:26.405Z,10.1
2017-09-22T03:24:26.360Z,10.09
2017-09-22T03:25:26.335Z,10.06
2017-09-22T03:26:40.929Z,10.11
2017-09-22T03:27:26.343Z,10.14
2017-09-22T03:28:26.271Z,10.06
2017-09-22T03:29:26.246Z,10.16
2017-09-22T03:30:26.232Z,10.16
2017-09-22T03:31:26.204Z,10.13
2017-09-22T03:32:25.871Z,10.18
2017-09-22T03:33:26.153Z,10.22
2017-09-22T03:34:26.134Z,10.18
2017-09-22T03:35:25.800Z,10.16
2017-09-22T03:36:26.085Z,10.18
2017-09-22T03:37:26.110Z,10.22
2017-09-22T03:38:26.050Z,10.2
2017-09-22T03:39:26.018Z,10.17
2017-09-22T03:40:26.053Z,10.11
2017-09-22T03:41:25.977Z,10.1
2017-09-22T03:42:25.948Z,10.13
2017-09-22T03:43:25.929Z,10.13
2017-09-22T03:44:25.898Z,10.1
2017-09-22T03:45:25.913Z,10.11
2017-09-22T03:46:25.243Z,10.07
2017-09-22T03:47:25.876Z,10.07
2017-09-22T03:48:25.815Z,10.1
2017-09-22T03:49:25.792Z,10.17
2017-09-22T03:50:25.763Z,10.18
2017-09-22T03:51:25.743Z,10.13
2017-09-22T03:52:25.408Z,10.2
2017-09-22T03:53:25.693Z,10.17
2017-09-22T03:54:25.677Z,10.17
2017-09-22T03:55:25.661Z,10.13
2017-09-22T03:56:25.625Z,10.18
2017-09-22T03:57:25.601Z,10.1
2017-09-22T03:58:25.585Z,10.04
2017-09-22T03:59:25.565Z,10.06
2017-09-22T04:00:25.539Z,10.09
2017-09-22T04:01:25.514Z,10.14
2017-09-22T04:02:25.496Z,10.13
2017-09-22T04:03:25.161Z,10.04
2017-09-22T04:04:25.442Z,10.13
2017-09-22T04:05:25.121Z,10.06
2017-09-22T04:06:25.427Z,10.13
2017-09-22T04:07:25.070Z,10.06
2017-09-22T04:08:25.355Z,10.04
2017-09-22T04:09:25.322Z,9.96
2017-09-22T04:10:25.308Z,10.02
2017-09-22T04:11:25.279Z,10.07
2017-09-22T04:12:25.255Z,9.95
2017-09-22T04:13:25.241Z,9.95
2017-09-22T04:14:25.216Z,9.98
2017-09-22T04:15:25.185Z,9.98
2017-09-22T04:16:25.167Z,9.92
2017-09-22T04:17:25.149Z,9.96
2017-09-22T04:18:25.115Z,9.96
2017-09-22T04:19:25.094Z,9.99
2017-09-22T04:20:25.073Z,9.85
2017-09-22T04:21:25.047Z,9.98
2017-09-22T04:22:25.037Z,9.92
2017-09-22T04:23:24.703Z,9.89
2017-09-22T04:24:24.990Z,9.91
2017-09-22T04:25:24.955Z,9.89
2017-09-22T04:26:24.941Z,9.86
2017-09-22T04:27:24.910Z,9.85
2017-09-22T04:28:24.940Z,9.92
2017-09-22T04:29:24.865Z,9.86
2017-09-22T04:30:24.852Z,9.89
2017-09-22T04:31:24.821Z,9.91
2017-09-22T04:32:24.805Z,9.86
2017-09-22T04:33:24.787Z,9.86
2017-09-22T04:34:24.757Z,9.88
2017-09-22T04:35:24.730Z,9.88
2017-09-22T04:36:24.708Z,9.81
2017-09-22T04:37:24.688Z,9.89
2017-09-22T04:38:24.660Z,9.86
2017-09-22T04:39:24.337Z,9.91
2017-09-22T04:40:24.616Z,9.86
2017-09-22T04:41:24.596Z,9.86
2017-09-22T04:42:24.567Z,9.85
2017-09-22T04:43:24.546Z,9.88
2017-09-22T04:44:24.519Z,9.91
2017-09-22T04:45:24.498Z,9.91
2017-09-22T04:46:24.169Z,9.86
2017-09-22T04:47:24.487Z,9.83
2017-09-22T04:48:24.430Z,9.88
2017-09-22T04:49:24.409Z,9.88
2017-09-22T04:50:24.388Z,9.88
2017-09-22T04:51:24.364Z,9.86
2017-09-22T04:52:24.337Z,9.86
2017-09-22T04:53:24.315Z,9.81
2017-09-22T04:54:24.290Z,9.8
2017-09-22T04:55:24.314Z,9.77
2017-09-22T04:56:24.249Z,9.85
2017-09-22T04:57:24.223Z,9.78
2017-09-22T04:58:24.201Z,9.8
2017-09-22T04:59:24.179Z,9.75
2017-09-22T05:00:24.147Z,9.74
2017-09-22T05:01:24.126Z,9.73
2017-09-22T05:02:23.799Z,9.68
2017-09-22T05:03:24.082Z,9.68
2017-09-22T05:04:24.059Z,9.67
2017-09-22T05:05:24.036Z,9.74
2017-09-22T05:06:23.741Z,9.68
2017-09-22T05:07:23.991Z,9.68
2017-09-22T05:08:23.970Z,9.7
2017-09-22T05:09:23.947Z,9.75
2017-09-22T05:10:23.925Z,9.77
2017-09-22T05:11:23.894Z,9.77
2017-09-22T05:12:23.573Z,9.8
2017-09-22T05:13:23.852Z,9.8
2017-09-22T05:14:23.840Z,9.77
2017-09-22T05:15:23.805Z,9.74
2017-09-22T05:16:23.780Z,9.75
2017-09-22T05:17:23.761Z,9.7
2017-09-22T05:18:23.753Z,9.71
2017-09-22T05:19:23.719Z,9.71
2017-09-22T05:20:23.698Z,9.67
2017-09-22T05:21:23.677Z,9.7
2017-09-22T05:22:23.646Z,9.71
2017-09-22T05:23:23.638Z,9.77
2017-09-22T05:24:23.610Z,9.7
2017-09-22T05:25:23.582Z,9.75
2017-09-22T05:26:23.280Z,9.81
2017-09-22T05:27:23.533Z,9.85
2017-09-22T05:28:23.509Z,9.88
2017-09-22T05:29:23.476Z,9.86
2017-09-22T05:30:23.457Z,9.92
2017-09-22T05:31:23.436Z,9.96
2017-09-22T05:32:23.416Z,9.99
2017-09-22T05:33:23.416Z,10.06
2017-09-22T05:34:23.372Z,10.07
2017-09-22T05:35:23.350Z,10.06
2017-09-22T05:36:23.322Z,10.07
2017-09-22T05:37:23.297Z,10.11
2017-09-22T05:38:23.275Z,10.14
2017-09-22T05:39:23.261Z,10.11
2017-09-22T05:40:23.229Z,10.11
2017-09-22T05:41:23.202Z,10.13
2017-09-22T05:42:23.186Z,10.07
2017-09-22T05:43:23.168Z,10.2
2017-09-22T05:44:22.832Z,10.14
2017-09-22T05:45:23.127Z,10.22
2017-09-22T05:46:23.093Z,10.29
2017-09-22T05:47:23.061Z,10.31
2017-09-22T05:48:23.045Z,10.39
2017-09-22T05:49:23.021Z,10.46
2017-09-22T05:50:23.001Z,10.42
2017-09-22T05:51:22.980Z,10.58
2017-09-22T05:52:22.959Z,10.51
2017-09-22T05:53:22.931Z,10.54
2017-09-22T05:54:22.910Z,10.6
2017-09-22T05:55:22.887Z,10.58
2017-09-22T05:56:22.871Z,10.57
2017-09-22T05:57:22.847Z,10.75
2017-09-22T05:58:22.817Z,10.72
2017-09-22T05:59:22.798Z,10.86
2017-09-22T06:00:22.457Z,10.73
2017-09-22T06:01:22.742Z,10.88
2017-09-22T06:02:22.721Z,10.9
2017-09-22T06:03:22.703Z,11.03
2017-09-22T06:04:22.685Z,10.9
2017-09-22T06:05:22.718Z,10.99
2017-09-22T06:06:22.628Z,10.95
2017-09-22T06:07:22.610Z,11.05
2017-09-22T06:08:22.590Z,11.09
2017-09-22T06:09:22.564Z,11.2
2017-09-22T06:10:22.556Z,11.16
2017-09-22T06:11:22.216Z,11.2
2017-09-22T06:12:22.504Z,11.16
2017-09-22T06:13:22.174Z,11.26
2017-09-22T06:14:22.450Z,11.3
2017-09-22T06:15:22.431Z,11.35
2017-09-22T06:16:22.103Z,11.45
2017-09-22T06:17:22.389Z,11.51
2017-09-22T06:18:22.360Z,11.6
2017-09-22T06:19:22.045Z,11.62
2017-09-22T06:20:22.014Z,11.82
2017-09-22T06:21:22.291Z,12.08
2017-09-22T06:22:22.272Z,12.29
2017-09-22T06:23:22.257Z,12.59
2017-09-22T06:24:22.231Z,12.98
2017-09-22T06:25:22.420Z,13.14
2017-09-22T06:26:21.925Z,13.36
2017-09-22T06:27:22.217Z,13.51
2017-09-22T06:28:22.149Z,13.72
2017-09-22T06:29:22.120Z,13.93
2017-09-22T06:30:22.100Z,14.01
2017-09-22T06:31:22.075Z,14.24
2017-09-22T06:32:22.053Z,14.3
2017-09-22T06:33:22.062Z,14.54
2017-09-22T06:34:22.013Z,14.74
2017-09-22T06:35:21.994Z,14.79
2017-09-22T06:36:21.979Z,14.98
2017-09-22T06:37:21.952Z,15.03
2017-09-22T06:38:21.931Z,15.05
2017-09-22T06:39:21.907Z,15.25
2017-09-22T06:40:21.884Z,15.41
2017-09-22T06:41:21.922Z,15.64
2017-09-22T06:42:21.845Z,15.8
2017-09-22T06:43:21.830Z,15.96
2017-09-22T06:44:21.808Z,16.11
2017-09-22T06:45:21.808Z,16.34
2017-09-22T06:46:21.781Z,16.47
2017-09-22T06:47:21.746Z,16.45
2017-09-22T06:48:21.418Z,16.55
2017-09-22T06:49:21.704Z,16.65
2017-09-22T06:50:21.682Z,16.72
2017-09-22T06:51:21.667Z,16.85
2017-09-22T06:52:21.643Z,16.9
2017-09-22T06:53:21.622Z,17.02
2017-09-22T06:54:21.615Z,17.25
2017-09-22T06:55:21.592Z,17.28
2017-09-22T06:56:21.560Z,17.47
2017-09-22T06:57:21.541Z,17.6
2017-09-22T06:58:21.530Z,17.74
2017-09-22T06:59:21.519Z,17.79
2017-09-22T07:00:21.493Z,17.95
2017-09-22T07:01:21.468Z,18.07
2017-09-22T07:02:21.452Z,18.05
2017-09-22T07:03:21.436Z,17.96
2017-09-22T07:04:21.415Z,17.89
2017-09-22T07:05:21.611Z,17.96
2017-09-22T07:06:21.377Z,17.83
2017-09-22T07:07:21.365Z,17.7
2017-09-22T07:08:21.339Z,17.68
2017-09-22T07:09:21.029Z,17.63
2017-09-22T07:10:21.308Z,17.7
2017-09-22T07:11:21.291Z,17.74
2017-09-22T07:12:21.272Z,17.86
2017-09-22T07:13:21.240Z,17.91
2017-09-22T07:14:21.220Z,18.01
2017-09-22T07:15:21.219Z,18.23
2017-09-22T07:16:21.188Z,18.53
2017-09-22T07:17:21.177Z,18.75
2017-09-22T07:18:20.852Z,19.12
2017-09-22T07:19:21.163Z,19.31
2017-09-22T07:20:21.123Z,19.58
2017-09-22T07:21:21.087Z,19.62
2017-09-22T07:22:21.081Z,19.68
2017-09-22T07:23:20.751Z,19.71
2017-09-22T07:24:21.051Z,19.9
2017-09-22T07:25:20.715Z,20
2017-09-22T07:26:21.052Z,20.02
2017-09-22T07:27:20.991Z,20.19
2017-09-22T07:28:20.971Z,20.19
2017-09-22T07:29:20.962Z,20.34
2017-09-22T07:30:20.940Z,20.51
2017-09-22T07:31:20.922Z,20.5
2017-09-22T07:32:20.907Z,20.48
2017-09-22T07:33:20.897Z,20.46
2017-09-22T07:34:20.561Z,20.54
2017-09-22T07:35:20.850Z,20.57
2017-09-22T07:36:20.844Z,20.72
2017-09-22T07:37:20.873Z,20.79
2017-09-22T07:38:20.800Z,20.83
2017-09-22T07:39:20.784Z,20.85
2017-09-22T07:40:20.769Z,20.94
2017-09-22T07:41:20.758Z,21.15
2017-09-22T07:42:20.731Z,21.53
2017-09-22T07:43:20.721Z,21.81
2017-09-22T07:44:20.716Z,22.14
2017-09-22T07:45:20.679Z,22.35
2017-09-22T07:46:20.674Z,22.61
2017-09-22T07:47:20.661Z,22.81
2017-09-22T07:48:20.635Z,23.01
2017-09-22T07:49:20.619Z,23.14
2017-09-22T07:50:20.307Z,23.23
2017-09-22T07:51:20.598Z,23.38
2017-09-22T07:52:20.572Z,23.41
2017-09-22T07:53:20.558Z,23.63
2017-09-22T07:54:20.239Z,23.72
2017-09-22T07:55:20.542Z,23.86
2017-09-22T07:56:20.570Z,23.97
2017-09-22T07:57:20.513Z,24.12
2017-09-22T07:58:20.497Z,24.29
2017-09-22T07:59:20.476Z,24.29
2017-09-22T08:00:20.469Z,24.27
2017-09-22T08:01:20.460Z,24.42
2017-09-22T08:02:20.435Z,24.48
2017-09-22T08:03:20.412Z,24.66
2017-09-22T08:04:20.100Z,24.84
2017-09-22T08:05:20.402Z,25.01
2017-09-22T08:06:20.380Z,25.05
2017-09-22T08:07:20.410Z,25.08
2017-09-22T08:08:20.352Z,25.16
2017-09-22T08:09:20.352Z,25.24
2017-09-22T08:10:20.331Z,25.41
2017-09-22T08:11:20.042Z,25.54
2017-09-22T08:12:20.306Z,25.71
2017-09-22T08:13:19.993Z,25.83
2017-09-22T08:14:19.982Z,25.94
2017-09-22T08:15:20.270Z,25.98
2017-09-22T08:16:20.258Z,26.27
2017-09-22T08:17:20.250Z,26.23
2017-09-22T08:18:20.235Z,26.19
2017-09-22T08:19:19.913Z,26.21
2017-09-22T08:20:20.210Z,26.36
2017-09-22T08:21:20.203Z,26.35
2017-09-22T08:22:19.887Z,26.32
2017-09-22T08:23:20.175Z,26.35
2017-09-22T08:24:20.171Z,26.42
2017-09-22T08:25:20.159Z,26.53
2017-09-22T08:26:19.835Z,26.66
2017-09-22T08:27:20.128Z,26.54
2017-09-22T08:28:20.122Z,26.59
2017-09-22T08:29:19.804Z,26.64
2017-09-22T08:30:20.107Z,26.56
2017-09-22T08:31:20.086Z,26.46
2017-09-22T08:32:20.074Z,26.04
2017-09-22T08:33:19.760Z,25.94
2017-09-22T08:34:19.744Z,25.76
2017-09-22T08:35:20.047Z,25.76
2017-09-22T08:36:20.021Z,25.82
2017-09-22T08:37:20.018Z,25.53
2017-09-22T08:38:19.917Z,25.44
2017-09-22T08:39:20.000Z,25.24
2017-09-22T08:40:19.989Z,25.04
2017-09-22T08:41:19.669Z,24.92
2017-09-22T08:42:19.969Z,24.49
2017-09-22T08:43:19.645Z,24.39
2017-09-22T08:44:19.941Z,24.24
2017-09-22T08:45:19.935Z,24.26
2017-09-22T08:46:19.913Z,24.42
2017-09-22T08:47:19.913Z,24.49
2017-09-22T08:48:19.947Z,24.63
2017-09-22T08:49:19.875Z,24.87
2017-09-22T08:50:19.862Z,24.83
2017-09-22T08:51:19.848Z,24.97
2017-09-22T08:52:19.532Z,24.93
2017-09-22T08:53:19.822Z,24.79
2017-09-22T08:54:19.513Z,24.59
2017-09-22T08:55:19.798Z,24.41
2017-09-22T08:56:19.803Z,24.3
2017-09-22T08:57:19.778Z,24.3
2017-09-22T08:58:19.772Z,24.42
2017-09-22T08:59:19.763Z,24.36
2017-09-22T09:00:19.748Z,24.37
2017-09-22T09:01:19.723Z,24.3
2017-09-22T09:02:19.719Z,24.27
2017-09-22T09:03:19.718Z,24.3
2017-09-22T09:04:19.389Z,24.3
2017-09-22T09:05:19.692Z,24.23
2017-09-22T09:06:19.667Z,24.14
2017-09-22T09:07:19.695Z,24.04
2017-09-22T09:08:19.642Z,23.94
2017-09-22T09:09:19.363Z,23.87
2017-09-22T09:10:19.616Z,24.06
2017-09-22T09:11:19.601Z,24.23
2017-09-22T09:12:19.584Z,24.56
2017-09-22T09:13:19.582Z,24.92
2017-09-22T09:14:19.565Z,25.04
2017-09-22T09:15:19.550Z,24.99
2017-09-22T09:16:19.544Z,25.07
2017-09-22T09:17:19.216Z,25.11
2017-09-22T09:18:19.511Z,25.19
2017-09-22T09:19:19.497Z,25.12
2017-09-22T09:20:19.485Z,25.05
2017-09-22T09:21:19.471Z,25.09
2017-09-22T09:22:19.461Z,25.08
2017-09-22T09:23:19.454Z,25.26
2017-09-22T09:24:19.131Z,25.12
2017-09-22T09:25:19.424Z,25.19
2017-09-22T09:26:19.478Z,25.04
2017-09-22T09:27:19.397Z,25.02
2017-09-22T09:28:19.080Z,24.86
2017-09-22T09:29:19.373Z,24.8
2017-09-22T09:30:19.368Z,24.92
2017-09-22T09:31:19.352Z,24.97
2017-09-22T09:32:19.344Z,25.05
2017-09-22T09:33:19.367Z,25.01
2017-09-22T09:34:19.319Z,24.94
2017-09-22T09:35:19.304Z,24.97
2017-09-22T09:36:19.298Z,24.84
2017-09-22T09:37:19.275Z,24.75
2017-09-22T09:38:19.264Z,24.7
2017-09-22T09:39:19.244Z,24.83
2017-09-22T09:40:19.237Z,24.97
2017-09-22T09:41:19.229Z,24.89
2017-09-22T09:42:18.959Z,24.86
2017-09-22T09:43:19.206Z,24.64
2017-09-22T09:44:19.185Z,24.59
2017-09-22T09:45:19.182Z,24.49
2017-09-22T09:46:19.166Z,24.41
2017-09-22T09:47:19.155Z,24.27
2017-09-22T09:48:19.138Z,24.15
2017-09-22T09:49:19.122Z,24.09
2017-09-22T09:50:19.109Z,24.05
2017-09-22T09:51:19.096Z,24.02
2017-09-22T09:52:19.083Z,24
2017-09-22T09:53:19.116Z,23.94
2017-09-22T09:54:19.056Z,23.75
2017-09-22T09:55:18.789Z,23.64
2017-09-22T09:56:19.075Z,23.42
2017-09-22T09:57:19.035Z,23.01
2017-09-22T09:58:19.006Z,22.57
2017-09-22T09:59:18.686Z,22.38
2017-09-22T10:00:18.975Z,22.06
2017-09-22T10:01:18.654Z,21.73
2017-09-22T10:02:19.203Z,21.46
2017-09-22T10:03:18.933Z,21.22
2017-09-22T10:04:18.918Z,20.98
2017-09-22T10:05:18.905Z,20.93
2017-09-22T10:06:18.890Z,20.94
2017-09-22T10:07:18.882Z,20.87
2017-09-22T10:08:18.864Z,20.71
2017-09-22T10:09:18.840Z,20.48
2017-09-22T10:10:18.831Z,20.46
2017-09-22T10:11:18.813Z,20.48
2017-09-22T10:12:18.794Z,20.31
2017-09-22T10:13:18.783Z,20.38
2017-09-22T10:14:18.760Z,20.2
2017-09-22T10:15:18.753Z,20.05
2017-09-22T10:16:18.728Z,20.17
2017-09-22T10:17:18.714Z,20.16
2017-09-22T10:18:18.693Z,20.13
2017-09-22T10:19:18.680Z,20.07
2017-09-22T10:20:18.664Z,20.13
2017-09-22T10:21:18.641Z,20.19
2017-09-22T10:22:18.618Z,20.33
2017-09-22T10:23:18.605Z,20.37
2017-09-22T10:24:18.594Z,20.46
2017-09-22T10:25:18.574Z,20.48
2017-09-22T10:26:18.550Z,20.44
2017-09-22T10:27:18.529Z,20.38
2017-09-22T10:28:18.518Z,20.25
2017-09-22T10:29:18.502Z,20.16
2017-09-22T10:30:18.478Z,20.19
2017-09-22T10:31:18.459Z,20.17
2017-09-22T10:32:18.446Z,20.17
2017-09-22T10:33:18.423Z,20.25
2017-09-22T10:34:18.411Z,20.26
2017-09-22T10:35:18.396Z,20.31
2017-09-22T10:36:18.367Z,20.31
2017-09-22T10:37:18.352Z,20.25
2017-09-22T10:38:18.335Z,20.17
2017-09-22T10:39:18.320Z,20.16
2017-09-22T10:40:18.302Z,20.26
2017-09-22T10:41:17.974Z,20.19
2017-09-22T10:42:18.310Z,20.19
2017-09-22T10:43:18.242Z,20.17
2017-09-22T10:44:18.229Z,20.33
2017-09-22T10:45:18.212Z,20.37
2017-09-22T10:46:18.189Z,20.37
2017-09-22T10:47:18.172Z,20.44
2017-09-22T10:48:18.156Z,20.4
2017-09-22T10:49:18.145Z,20.26
2017-09-22T10:50:18.158Z,20.25
2017-09-22T10:51:18.107Z,20.16
2017-09-22T10:52:18.086Z,20.12
2017-09-22T10:53:18.060Z,19.95
2017-09-22T10:54:17.735Z,19.95
2017-09-22T10:55:18.034Z,19.89
2017-09-22T10:56:18.003Z,19.98
2017-09-22T10:57:17.994Z,20.12
2017-09-22T10:58:17.972Z,20.08
2017-09-22T10:59:17.949Z,20.13
2017-09-22T11:00:17.930Z,20.17
2017-09-22T11:01:17.919Z,20.2
2017-09-22T11:02:17.908Z,20.19
2017-09-22T11:03:17.881Z,20.27
2017-09-22T11:04:17.863Z,20.35
2017-09-22T11:05:17.533Z,20.31
2017-09-22T11:06:17.817Z,20.26
2017-09-22T11:07:17.853Z,20.26
2017-09-22T11:08:17.789Z,20.34
2017-09-22T11:09:17.765Z,20.19
2017-09-22T11:10:17.443Z,20.27
2017-09-22T11:11:17.731Z,20.26
2017-09-22T11:12:17.709Z,20.27
2017-09-22T11:13:17.689Z,20.31
2017-09-22T11:14:17.681Z,20.31
2017-09-22T11:15:17.662Z,20.16
2017-09-22T11:16:17.634Z,20.17
2017-09-22T11:17:17.695Z,20.17
2017-09-22T11:18:17.616Z,20.2
2017-09-22T11:19:17.287Z,20.17
2017-09-22T11:20:17.570Z,20.2
2017-09-22T11:21:17.534Z,20.23
2017-09-22T11:22:17.550Z,20.13
2017-09-22T11:23:17.195Z,20.08
2017-09-22T11:24:17.505Z,20.13
2017-09-22T11:25:17.484Z,20.17
2017-09-22T11:26:17.459Z,20.17
2017-09-22T11:27:17.447Z,20.08
2017-09-22T11:28:17.426Z,20.07
2017-09-22T11:29:17.500Z,20.13
2017-09-22T11:30:17.400Z,20.2
2017-09-22T11:31:17.123Z,20.17
2017-09-22T11:32:17.354Z,20.04
2017-09-22T11:33:17.351Z,20.13
2017-09-22T11:34:17.079Z,20.08
2017-09-22T11:35:17.281Z,20.08
2017-09-22T11:36:16.959Z,20.02
2017-09-22T11:37:17.242Z,20.08
2017-09-22T11:38:17.245Z,20.02
2017-09-22T11:39:17.208Z,20.08
2017-09-22T11:40:16.882Z,20.25
2017-09-22T11:41:17.180Z,20.17
2017-09-22T11:42:17.153Z,20.34
2017-09-22T11:43:17.137Z,20.38
2017-09-22T11:44:17.116Z,20.48
2017-09-22T11:45:17.107Z,20.5
2017-09-22T11:46:17.081Z,20.51
2017-09-22T11:47:17.064Z,20.46
2017-09-22T11:48:17.064Z,20.61
2017-09-22T11:49:17.062Z,20.64
2017-09-22T11:50:17.025Z,20.73
2017-09-22T11:51:17.041Z,20.72
2017-09-22T11:52:16.973Z,20.79
2017-09-22T11:53:16.638Z,20.88
2017-09-22T11:54:16.636Z,20.97
2017-09-22T11:55:16.964Z,20.91
2017-09-22T11:56:16.897Z,20.88
2017-09-22T11:57:16.879Z,20.96
2017-09-22T11:58:16.855Z,20.98
2017-09-22T11:59:16.850Z,20.87
2017-09-22T12:00:16.877Z,20.78
2017-09-22T12:01:16.852Z,20.87
2017-09-22T12:02:16.784Z,20.82
2017-09-22T12:03:16.772Z,20.88
2017-09-22T12:04:16.807Z,20.82
2017-09-22T12:05:16.745Z,20.91
2017-09-22T12:06:16.719Z,20.88
2017-09-22T12:07:16.703Z,20.9
2017-09-22T12:08:16.706Z,20.9
2017-09-22T12:09:16.672Z,20.91
2017-09-22T12:10:16.347Z,20.81
2017-09-22T12:11:16.629Z,20.76
2017-09-22T12:12:16.616Z,20.79
2017-09-22T12:13:16.589Z,20.69
2017-09-22T12:14:16.578Z,20.66
2017-09-22T12:15:16.553Z,20.66
2017-09-22T12:16:16.594Z,20.68
2017-09-22T12:17:16.570Z,20.69
2017-09-22T12:18:16.506Z,20.72
2017-09-22T12:19:16.488Z,20.75
2017-09-22T12:20:16.481Z,20.71
2017-09-22T12:21:16.448Z,20.64
2017-09-22T12:22:16.428Z,20.75
2017-09-22T12:23:16.098Z,20.78
2017-09-22T12:24:16.404Z,20.78
2017-09-22T12:25:16.390Z,20.76
2017-09-22T12:26:16.366Z,20.73
2017-09-22T12:27:16.344Z,20.79
2017-09-22T12:28:16.017Z,20.83
2017-09-22T12:29:16.052Z,20.76
2017-09-22T12:30:16.299Z,20.75
2017-09-22T12:31:16.272Z,20.75
2017-09-22T12:32:15.948Z,20.78
2017-09-22T12:33:15.928Z,20.81
2017-09-22T12:34:16.218Z,20.85
2017-09-22T12:35:16.212Z,20.9
2017-09-22T12:36:16.185Z,20.98
2017-09-22T12:37:16.175Z,20.93
2017-09-22T12:38:16.144Z,20.96
2017-09-22T12:39:16.125Z,20.96
2017-09-22T12:40:16.119Z,20.96
2017-09-22T12:41:16.108Z,20.87
2017-09-22T12:42:16.128Z,20.9
2017-09-22T12:43:16.066Z,20.88
2017-09-22T12:44:16.040Z,20.88
2017-09-22T12:45:16.088Z,20.87
2017-09-22T12:46:16.001Z,20.94
2017-09-22T12:47:16.002Z,20.91
2017-09-22T12:48:15.971Z,20.93
2017-09-22T12:49:15.949Z,20.93
2017-09-22T12:50:15.936Z,20.88
2017-09-22T12:51:15.925Z,20.87
2017-09-22T12:52:15.913Z,20.88
2017-09-22T12:53:15.880Z,20.78
2017-09-22T12:54:15.868Z,20.87
2017-09-22T12:55:15.845Z,20.85
2017-09-22T12:56:15.833Z,20.85
2017-09-22T12:57:15.804Z,20.87